createdAt,value
2023-02-12T00:01:33.055Z,81.34
2023-02-12T00:03:59.721Z,80.76
2023-02-12T00:06:27.043Z,80.65
2023-02-12T00:08:54.794Z,80.98
2023-02-12T00:11:23.345Z,81.24
2023-02-12T00:13:50.135Z,81.23
2023-02-12T00:16:18.355Z,81.27
2023-02-12T00:18:45.624Z,81.56
2023-02-12T00:21:12.806Z,82.09
2023-02-12T00:23:41.267Z,82.57
2023-02-12T00:26:08.752Z,82.83
2023-02-12T00:28:35.948Z,83.28
2023-02-12T00:31:13.533Z,83.71
2023-02-12T00:33:40.241Z,84.24
2023-02-12T00:36:07.669Z,85.68
2023-02-12T00:38:34.381Z,86.48
2023-02-12T00:41:01.041Z,86.47
2023-02-12T00:43:27.705Z,85.93
2023-02-12T00:45:54.908Z,85.88
2023-02-12T00:48:21.662Z,86.18
2023-02-12T00:50:48.775Z,86.77
2023-02-12T00:53:15.720Z,86.58
2023-02-12T00:55:42.327Z,87.46
2023-02-12T00:58:09.122Z,87.78
2023-02-12T01:00:35.729Z,88.06
2023-02-12T01:03:02.370Z,88.75
2023-02-12T01:05:28.973Z,88.91
2023-02-12T01:07:56.379Z,90.20
2023-02-12T01:10:23.074Z,91.26
2023-02-12T01:12:50.406Z,91.11
2023-02-12T01:15:17.763Z,91.55
2023-02-12T01:17:44.678Z,93.71
2023-02-12T01:20:13.106Z,98.40
2023-02-12T01:22:39.843Z,98.56
2023-02-12T01:25:07.483Z,97.39
2023-02-12T01:27:34.103Z,95.60
2023-02-12T01:30:00.780Z,95.43
2023-02-12T01:32:27.419Z,95.12
2023-02-12T01:34:54.151Z,96.14
2023-02-12T01:37:20.746Z,96.52
2023-02-12T01:39:47.367Z,97.34
2023-02-12T01:42:15.140Z,97.65
2023-02-12T01:44:46.024Z,98.27
2023-02-12T01:47:16.933Z,98.69
2023-02-12T01:49:45.492Z,99.53
2023-02-12T01:52:31.800Z,100.00
2023-02-12T01:55:00.569Z,100.00
2023-02-12T01:57:28.704Z,100.00
2023-02-12T01:59:56.611Z,100.00
2023-02-12T02:02:23.415Z,100.00
2023-02-12T02:04:52.192Z,100.00
2023-02-12T02:07:18.911Z,100.00
2023-02-12T02:09:46.061Z,100.00
2023-02-12T02:12:30.992Z,100.00
2023-02-12T02:14:59.127Z,100.00
2023-02-12T02:17:28.811Z,100.00
2023-02-12T02:19:55.452Z,100.00
2023-02-12T02:22:22.046Z,100.00
2023-02-12T02:25:00.803Z,100.00
2023-02-12T02:27:31.550Z,100.00
2023-02-12T02:30:13.604Z,100.00
2023-02-12T02:32:59.445Z,100.00
2023-02-12T02:35:52.310Z,100.00
2023-02-12T02:38:45.172Z,100.00
2023-02-12T02:41:20.812Z,100.00
2023-02-12T02:43:49.334Z,100.00
2023-02-12T02:46:19.086Z,100.00
2023-02-12T02:48:49.437Z,100.00
2023-02-12T02:51:19.456Z,100.00
2023-02-12T02:53:49.073Z,100.00
2023-02-12T02:56:17.656Z,100.00
2023-02-12T02:58:48.043Z,100.00
2023-02-12T03:01:21.372Z,100.00
2023-02-12T03:03:48.819Z,100.00
2023-02-12T03:06:35.605Z,100.00
2023-02-12T03:09:06.316Z,100.00
2023-02-12T03:11:34.596Z,100.00
2023-02-12T03:14:01.183Z,100.00
2023-02-12T03:16:29.851Z,100.00
2023-02-12T03:19:02.490Z,100.00
2023-02-12T03:21:32.079Z,100.00
2023-02-12T03:24:05.337Z,100.00
2023-02-12T03:26:40.920Z,100.00
2023-02-12T03:29:07.693Z,100.00
2023-02-12T03:31:37.932Z,100.00
2023-02-12T03:34:11.198Z,100.00
2023-02-12T03:36:44.565Z,100.00
2023-02-12T03:39:20.565Z,100.00
2023-02-12T03:41:50.142Z,100.00
2023-02-12T03:44:35.447Z,100.00
2023-02-12T03:47:28.320Z,100.00
2023-02-12T03:50:16.682Z,100.00
2023-02-12T03:52:43.727Z,100.00
2023-02-12T03:55:10.845Z,100.00
2023-02-12T03:57:39.815Z,100.00
2023-02-12T04:00:08.238Z,100.00
2023-02-12T04:02:35.095Z,100.00
2023-02-12T04:05:05.793Z,100.00
2023-02-12T04:07:32.878Z,100.00
2023-02-12T04:09:59.546Z,100.00
2023-02-12T04:12:33.938Z,100.00
2023-02-12T04:15:13.785Z,100.00
2023-02-12T04:17:40.723Z,100.00
2023-02-12T04:20:07.437Z,100.00
2023-02-12T04:22:34.078Z,100.00
2023-02-12T04:25:09.851Z,100.00
2023-02-12T04:27:48.404Z,100.00
2023-02-12T04:30:20.937Z,100.00
2023-02-12T04:32:50.541Z,100.00
2023-02-12T04:35:23.368Z,100.00
2023-02-12T04:37:49.991Z,100.00
2023-02-12T04:40:18.224Z,100.00
2023-02-12T04:42:45.853Z,100.00
2023-02-12T04:45:14.162Z,100.00
2023-02-12T04:47:40.845Z,100.00
2023-02-12T04:50:08.247Z,100.00
2023-02-12T04:52:34.911Z,100.00
2023-02-12T04:55:01.467Z,100.00
2023-02-12T04:57:28.130Z,100.00
2023-02-12T04:59:54.730Z,100.00
2023-02-12T05:02:21.351Z,100.00
2023-02-12T05:04:49.459Z,100.00
2023-02-12T05:07:16.307Z,100.00
2023-02-12T05:09:42.880Z,100.00
2023-02-12T05:12:09.753Z,100.00
2023-02-12T05:14:36.399Z,100.00
2023-02-12T05:17:03.079Z,100.00
2023-02-12T05:19:29.688Z,100.00
2023-02-12T05:21:56.404Z,100.00
2023-02-12T05:24:22.958Z,100.00
2023-02-12T05:26:49.763Z,100.00
2023-02-12T05:29:16.430Z,100.00
2023-02-12T05:31:43.154Z,100.00
2023-02-12T05:34:11.539Z,100.00
2023-02-12T05:36:38.285Z,100.00
2023-02-12T05:39:05.206Z,100.00
2023-02-12T05:41:35.300Z,100.00
2023-02-12T05:44:02.997Z,100.00
2023-02-12T05:46:29.765Z,100.00
2023-02-12T05:48:56.477Z,100.00
2023-02-12T05:51:24.142Z,100.00
2023-02-12T05:53:51.869Z,100.00
2023-02-12T05:56:22.474Z,100.00
2023-02-12T05:58:52.436Z,100.00
2023-02-12T06:01:23.622Z,100.00
2023-02-12T06:03:50.268Z,100.00
2023-02-12T06:06:16.912Z,100.00
2023-02-12T06:08:43.650Z,100.00
2023-02-12T06:11:12.909Z,100.00
2023-02-12T06:13:39.847Z,100.00
2023-02-12T06:16:06.879Z,100.00
2023-02-12T06:18:35.437Z,100.00
2023-02-12T06:21:03.927Z,100.00
2023-02-12T06:23:30.480Z,100.00
2023-02-12T06:25:57.473Z,100.00
2023-02-12T06:28:24.321Z,100.00
2023-02-12T06:30:51.193Z,100.00
2023-02-12T06:33:17.979Z,100.00
2023-02-12T06:35:44.665Z,100.00
2023-02-12T06:38:11.648Z,100.00
2023-02-12T06:40:38.310Z,100.00
2023-02-12T06:43:05.011Z,100.00
2023-02-12T06:45:31.643Z,100.00
2023-02-12T06:47:58.249Z,100.00
2023-02-12T06:50:24.993Z,100.00
2023-02-12T06:52:51.607Z,100.00
2023-02-12T06:55:18.384Z,100.00
2023-02-12T06:57:44.972Z,100.00
2023-02-12T07:00:11.988Z,100.00
2023-02-12T07:02:39.137Z,100.00
2023-02-12T07:05:05.997Z,100.00
2023-02-12T07:07:32.771Z,100.00
2023-02-12T07:09:59.466Z,100.00
2023-02-12T07:12:26.095Z,100.00
2023-02-12T07:14:52.729Z,100.00
2023-02-12T07:17:19.348Z,100.00
2023-02-12T07:19:45.980Z,100.00
2023-02-12T07:22:12.562Z,100.00
2023-02-12T07:24:39.479Z,100.00
2023-02-12T07:27:06.354Z,100.00
2023-02-12T07:29:33.027Z,100.00
2023-02-12T07:32:00.118Z,100.00
2023-02-12T07:34:26.733Z,100.00
2023-02-12T07:36:53.375Z,100.00
2023-02-12T07:39:20.020Z,100.00
2023-02-12T07:41:46.705Z,100.00
2023-02-12T07:44:13.540Z,100.00
2023-02-12T07:46:41.834Z,100.00
2023-02-12T07:49:11.236Z,100.00
2023-02-12T07:51:38.155Z,100.00
2023-02-12T07:54:05.267Z,100.00
2023-02-12T07:56:33.711Z,100.00
2023-02-12T07:59:01.167Z,100.00
2023-02-12T08:01:29.878Z,100.00
2023-02-12T08:04:07.337Z,100.00
2023-02-12T08:06:35.355Z,100.00
2023-02-12T08:09:03.231Z,100.00
2023-02-12T08:11:30.256Z,89.90
2023-02-12T08:13:57.637Z,92.91
2023-02-12T08:16:25.755Z,91.84
2023-02-12T08:18:52.529Z,93.73
2023-02-12T08:21:20.907Z,92.42
2023-02-12T08:23:50.794Z,81.67
2023-02-12T08:26:17.531Z,74.21
2023-02-12T08:28:45.886Z,78.65
2023-02-12T08:31:17.073Z,82.00
2023-02-12T08:33:44.723Z,77.15
2023-02-12T08:36:13.121Z,77.08
2023-02-12T08:38:39.911Z,82.76
2023-02-12T08:41:07.984Z,80.88
2023-02-12T08:43:34.747Z,90.60
2023-02-12T08:46:12.302Z,99.62
2023-02-12T08:48:39.278Z,100.00
2023-02-12T08:51:08.715Z,100.00
2023-02-12T08:53:35.546Z,100.00
2023-02-12T08:56:02.339Z,100.00
2023-02-12T08:58:28.981Z,100.00
2023-02-12T09:00:55.709Z,100.00
2023-02-12T09:03:22.352Z,100.00
2023-02-12T09:05:49.126Z,100.00
2023-02-12T09:08:15.850Z,100.00
2023-02-12T09:10:43.643Z,100.00
2023-02-12T09:13:11.177Z,100.00
2023-02-12T09:15:38.561Z,100.00
2023-02-12T09:18:05.672Z,100.00
2023-02-12T09:20:32.397Z,100.00
2023-02-12T09:23:02.137Z,99.39
2023-02-12T09:25:28.916Z,96.94
2023-02-12T09:27:56.782Z,100.00
2023-02-12T09:30:23.629Z,100.00
2023-02-12T09:32:50.301Z,100.00
2023-02-12T09:35:18.601Z,100.00
2023-02-12T09:37:45.924Z,100.00
2023-02-12T09:40:18.887Z,100.00
2023-02-12T09:42:45.540Z,100.00
2023-02-12T09:45:21.865Z,100.00
2023-02-12T09:47:51.848Z,100.00
2023-02-12T09:50:37.636Z,100.00
2023-02-12T09:53:04.955Z,100.00
2023-02-12T09:55:33.529Z,100.00
2023-02-12T09:58:09.443Z,100.00
2023-02-12T10:00:36.120Z,100.00
2023-02-12T10:03:05.616Z,100.00
2023-02-12T10:05:36.558Z,100.00
2023-02-12T10:08:26.544Z,100.00
2023-02-12T10:10:53.264Z,100.00
2023-02-12T10:13:27.857Z,100.00
2023-02-12T10:16:14.928Z,100.00
2023-02-12T10:18:51.140Z,99.15
2023-02-12T10:21:17.836Z,100.00
2023-02-12T10:23:50.660Z,100.00
2023-02-12T10:26:25.593Z,100.00
2023-02-12T10:28:53.075Z,99.42
2023-02-12T10:31:25.915Z,97.50
2023-02-12T10:33:55.058Z,95.87
2023-02-12T10:36:24.867Z,97.38
2023-02-12T10:38:55.712Z,97.72
2023-02-12T10:41:23.198Z,96.71
2023-02-12T10:43:49.836Z,93.61
2023-02-12T10:46:17.253Z,91.00
2023-02-12T10:48:46.016Z,90.04
2023-02-12T10:51:19.091Z,91.33
2023-02-12T10:53:46.382Z,93.05
2023-02-12T10:56:13.082Z,93.36
2023-02-12T10:58:41.075Z,91.31
2023-02-12T11:01:15.871Z,90.81
2023-02-12T11:03:42.870Z,93.96
2023-02-12T11:06:15.202Z,95.44
2023-02-12T11:08:42.455Z,94.80
2023-02-12T11:11:11.247Z,89.42
2023-02-12T11:13:40.337Z,85.79
2023-02-12T11:16:07.604Z,87.67
2023-02-12T11:18:34.727Z,89.73
2023-02-12T11:21:08.932Z,90.36
2023-02-12T11:23:43.376Z,91.05
2023-02-12T11:26:18.985Z,92.22
2023-02-12T11:28:57.286Z,92.68
2023-02-12T11:31:27.058Z,93.39
2023-02-12T11:34:12.570Z,94.06
2023-02-12T11:36:41.575Z,93.30
2023-02-12T11:39:16.831Z,89.66
2023-02-12T11:41:43.865Z,91.18
2023-02-12T11:44:13.225Z,91.22
2023-02-12T11:46:40.778Z,90.77
2023-02-12T11:49:09.746Z,90.02
2023-02-12T11:51:40.298Z,89.85
2023-02-12T11:54:07.053Z,89.80
2023-02-12T11:56:41.302Z,89.09
2023-02-12T11:59:40.462Z,89.46
2023-02-12T12:02:26.127Z,89.47
2023-02-12T12:04:55.911Z,87.46
2023-02-12T12:07:29.124Z,85.79
2023-02-12T12:10:04.327Z,84.49
2023-02-12T12:12:49.800Z,81.72
2023-02-12T12:15:44.414Z,80.95
2023-02-12T12:18:35.861Z,78.50
2023-02-12T12:21:17.363Z,80.09
2023-02-12T12:23:50.191Z,77.83
2023-02-12T12:26:22.918Z,75.78
2023-02-12T12:29:08.762Z,75.82
2023-02-12T12:31:40.909Z,74.68
2023-02-12T12:34:13.367Z,73.55
2023-02-12T12:36:40.277Z,73.88
2023-02-12T12:39:17.890Z,73.23
2023-02-12T12:41:59.413Z,72.67
2023-02-12T12:44:29.867Z,71.82
2023-02-12T12:46:59.785Z,68.94
2023-02-12T12:49:45.230Z,67.90
2023-02-12T12:52:30.964Z,67.75
2023-02-12T12:55:07.013Z,68.86
2023-02-12T12:57:57.122Z,69.35
2023-02-12T13:00:42.161Z,68.99
2023-02-12T13:03:12.466Z,71.16
2023-02-12T13:05:52.423Z,72.21
2023-02-12T13:08:29.632Z,72.85
2023-02-12T13:11:09.187Z,74.18
2023-02-12T13:13:39.024Z,72.40
2023-02-12T13:16:21.139Z,74.01
2023-02-12T13:18:47.916Z,75.46
2023-02-12T13:21:20.761Z,76.07
2023-02-12T13:23:47.992Z,77.42
2023-02-12T13:26:15.491Z,78.20
2023-02-12T13:28:51.697Z,77.87
2023-02-12T13:31:32.556Z,79.13
2023-02-12T13:34:06.985Z,79.72
2023-02-12T13:36:37.058Z,80.32
2023-02-12T13:39:13.363Z,80.75
2023-02-12T13:41:42.936Z,81.14
2023-02-12T13:44:34.843Z,81.26
2023-02-12T13:47:15.598Z,81.56
2023-02-12T13:49:48.756Z,81.24
2023-02-12T13:52:19.079Z,81.47
2023-02-12T13:55:12.186Z,81.24
2023-02-12T13:57:42.494Z,81.32
2023-02-12T14:00:34.237Z,80.63
2023-02-12T14:03:08.644Z,80.36
2023-02-12T14:05:36.043Z,79.59
2023-02-12T14:08:06.146Z,79.32
2023-02-12T14:10:35.323Z,78.99
2023-02-12T14:13:21.306Z,78.75
2023-02-12T14:15:59.014Z,79.43
2023-02-12T14:18:29.120Z,80.08
2023-02-12T14:21:14.892Z,80.30
2023-02-12T14:23:46.206Z,80.59
2023-02-12T14:26:14.377Z,81.12
2023-02-12T14:28:50.784Z,81.72
2023-02-12T14:31:23.823Z,82.19
2023-02-12T14:34:18.390Z,82.76
2023-02-12T14:36:47.753Z,83.03
2023-02-12T14:39:21.194Z,83.24
2023-02-12T14:41:58.547Z,84.99
2023-02-12T14:44:30.681Z,85.47
2023-02-12T14:47:08.018Z,85.76
2023-02-12T14:49:35.235Z,86.05
2023-02-12T14:52:07.674Z,86.26
2023-02-12T14:54:36.738Z,85.92
2023-02-12T14:57:07.747Z,86.19
2023-02-12T14:59:39.669Z,86.45
2023-02-12T15:02:08.809Z,87.02
2023-02-12T15:04:39.077Z,87.28
2023-02-12T15:07:12.770Z,87.76
2023-02-12T15:09:45.671Z,88.27
2023-02-12T15:12:30.574Z,88.83
2023-02-12T15:15:06.182Z,90.15
2023-02-12T15:17:35.810Z,90.05
2023-02-12T15:20:12.057Z,90.33
2023-02-12T15:22:43.978Z,90.60
2023-02-12T15:25:28.007Z,90.60
2023-02-12T15:28:00.771Z,90.76
2023-02-12T15:30:30.124Z,90.69
2023-02-12T15:32:57.741Z,90.63
2023-02-12T15:35:27.946Z,90.33
2023-02-12T15:37:56.553Z,89.20
2023-02-12T15:40:24.021Z,89.01
2023-02-12T15:42:54.547Z,89.27
2023-02-12T15:45:24.090Z,89.83
2023-02-12T15:48:00.019Z,90.57
2023-02-12T15:50:27.763Z,91.29
2023-02-12T15:52:56.386Z,91.77
2023-02-12T15:55:27.318Z,92.17
2023-02-12T15:57:56.709Z,92.96
2023-02-12T16:00:40.558Z,93.26
2023-02-12T16:03:27.569Z,93.71
2023-02-12T16:06:18.345Z,94.06
2023-02-12T16:08:51.404Z,94.29
2023-02-12T16:11:21.515Z,93.96
2023-02-12T16:13:53.251Z,93.01
2023-02-12T16:16:28.008Z,92.92
2023-02-12T16:19:14.078Z,93.37
2023-02-12T16:21:41.677Z,92.89
2023-02-12T16:24:35.187Z,92.73
2023-02-12T16:27:07.290Z,93.33
2023-02-12T16:29:37.307Z,94.12
2023-02-12T16:32:06.605Z,93.21
2023-02-12T16:34:38.577Z,91.33
2023-02-12T16:37:24.358Z,90.02
2023-02-12T16:39:57.975Z,90.13
2023-02-12T16:42:29.913Z,89.67
2023-02-12T16:44:58.301Z,89.54
2023-02-12T16:47:26.700Z,90.07
2023-02-12T16:49:59.127Z,90.58
2023-02-12T16:52:35.499Z,90.85
2023-02-12T16:55:02.734Z,91.58
2023-02-12T16:57:31.532Z,91.83
2023-02-12T16:59:59.050Z,93.17
2023-02-12T17:02:26.036Z,93.54
2023-02-12T17:04:56.870Z,94.16
2023-02-12T17:07:25.472Z,94.58
2023-02-12T17:09:55.109Z,94.34
2023-02-12T17:12:22.490Z,94.41
2023-02-12T17:14:50.281Z,94.77
2023-02-12T17:17:18.091Z,95.42
2023-02-12T17:19:46.995Z,95.73
2023-02-12T17:22:22.796Z,96.38
2023-02-12T17:24:52.243Z,96.31
2023-02-12T17:27:20.015Z,96.51
2023-02-12T17:29:47.561Z,97.30
2023-02-12T17:32:15.059Z,98.11
2023-02-12T17:34:48.650Z,98.27
2023-02-12T17:37:16.750Z,98.51
2023-02-12T17:39:45.359Z,98.30
2023-02-12T17:42:13.048Z,98.43
2023-02-12T17:44:42.770Z,99.19
2023-02-12T17:47:10.483Z,99.05
2023-02-12T17:49:40.066Z,100.00
2023-02-12T17:52:07.752Z,99.82
2023-02-12T17:54:34.732Z,98.39
2023-02-12T17:57:03.779Z,97.36
2023-02-12T17:59:31.223Z,96.20
2023-02-12T18:01:59.749Z,96.58
2023-02-12T18:04:27.436Z,95.77
2023-02-12T18:06:55.389Z,94.79
2023-02-12T18:09:22.898Z,93.81
2023-02-12T18:11:52.940Z,91.91
2023-02-12T18:14:20.263Z,92.10
2023-02-12T18:16:47.377Z,91.81
2023-02-12T18:19:15.665Z,92.10
2023-02-12T18:21:43.554Z,92.45
2023-02-12T18:24:16.055Z,93.23
2023-02-12T18:26:43.568Z,93.68
2023-02-12T18:29:11.370Z,93.55
2023-02-12T18:31:39.515Z,92.72
2023-02-12T18:34:07.337Z,92.69
2023-02-12T18:36:37.056Z,93.28
2023-02-12T18:39:06.337Z,93.08
2023-02-12T18:41:34.216Z,94.60
2023-02-12T18:44:01.405Z,96.01
2023-02-12T18:46:30.257Z,97.58
2023-02-12T18:48:58.702Z,98.56
2023-02-12T18:51:29.828Z,100.00
2023-02-12T18:54:04.855Z,100.00
2023-02-12T18:56:36.967Z,100.00
2023-02-12T18:59:05.876Z,100.00
2023-02-12T19:01:34.333Z,100.00
2023-02-12T19:04:02.622Z,100.00
2023-02-12T19:06:30.898Z,100.00
2023-02-12T19:09:04.912Z,100.00
2023-02-12T19:11:32.137Z,100.00
2023-02-12T19:14:01.001Z,100.00
2023-02-12T19:16:30.261Z,100.00
2023-02-12T19:19:03.431Z,100.00
2023-02-12T19:21:31.206Z,100.00
2023-02-12T19:24:00.163Z,100.00
2023-02-12T19:26:31.320Z,100.00
2023-02-12T19:28:58.803Z,100.00
2023-02-12T19:31:28.307Z,100.00
2023-02-12T19:34:00.013Z,100.00
2023-02-12T19:36:30.688Z,100.00
2023-02-12T19:38:57.959Z,100.00
2023-02-12T19:41:26.454Z,100.00
2023-02-12T19:43:59.004Z,100.00
2023-02-12T19:46:27.630Z,100.00
2023-02-12T19:48:57.019Z,100.00
2023-02-12T19:51:26.970Z,100.00
2023-02-12T19:53:54.648Z,100.00
2023-02-12T19:56:27.472Z,100.00
2023-02-12T19:58:56.904Z,100.00
2023-02-12T20:01:25.303Z,100.00
2023-02-12T20:03:56.021Z,100.00
2023-02-12T20:06:25.223Z,100.00
2023-02-12T20:08:53.210Z,100.00
2023-02-12T20:11:23.835Z,100.00
2023-02-12T20:13:51.823Z,100.00
2023-02-12T20:16:22.732Z,100.00
2023-02-12T20:18:51.373Z,100.00
2023-02-12T20:21:21.319Z,100.00
2023-02-12T20:23:48.796Z,100.00
2023-02-12T20:26:17.003Z,100.00
2023-02-12T20:28:45.916Z,100.00
2023-02-12T20:31:21.886Z,100.00
2023-02-12T20:33:53.948Z,100.00
2023-02-12T20:36:21.450Z,100.00
2023-02-12T20:38:55.322Z,100.00
2023-02-12T20:41:23.129Z,100.00
2023-02-12T20:43:50.915Z,100.00
2023-02-12T20:46:19.813Z,100.00
2023-02-12T20:48:48.071Z,100.00
2023-02-12T20:51:18.754Z,100.00
2023-02-12T20:53:46.752Z,100.00
2023-02-12T20:56:15.394Z,100.00
2023-02-12T20:58:45.470Z,100.00
2023-02-12T21:01:14.834Z,100.00
2023-02-12T21:03:49.786Z,100.00
2023-02-12T21:06:17.894Z,100.00
2023-02-12T21:08:46.888Z,100.00
2023-02-12T21:11:16.063Z,100.00
2023-02-12T21:13:58.556Z,100.00
2023-02-12T21:16:32.345Z,100.00
2023-02-12T21:19:00.223Z,100.00
2023-02-12T21:21:34.831Z,100.00
2023-02-12T21:24:03.065Z,100.00
2023-02-12T21:26:31.210Z,100.00
2023-02-12T21:28:59.089Z,100.00
2023-02-12T21:31:30.843Z,100.00
2023-02-12T21:33:59.613Z,100.00
2023-02-12T21:36:30.795Z,100.00
2023-02-12T21:38:58.474Z,100.00
2023-02-12T21:41:26.734Z,100.00
2023-02-12T21:43:56.982Z,100.00
2023-02-12T21:46:24.113Z,100.00
2023-02-12T21:48:51.422Z,100.00
2023-02-12T21:51:18.282Z,100.00
2023-02-12T21:53:46.932Z,100.00
2023-02-12T21:56:14.329Z,100.00
2023-02-12T21:58:41.261Z,100.00
2023-02-12T22:01:09.141Z,100.00
2023-02-12T22:03:36.076Z,100.00
2023-02-12T22:06:04.153Z,100.00
2023-02-12T22:08:30.822Z,100.00
2023-02-12T22:10:58.211Z,100.00
2023-02-12T22:13:25.031Z,100.00
2023-02-12T22:15:52.272Z,100.00
2023-02-12T22:18:18.852Z,100.00
2023-02-12T22:20:45.525Z,100.00
2023-02-12T22:23:12.633Z,100.00
2023-02-12T22:25:39.253Z,100.00
2023-02-12T22:28:05.998Z,100.00
2023-02-12T22:30:32.744Z,100.00
2023-02-12T22:32:59.385Z,100.00
2023-02-12T22:35:26.110Z,100.00
2023-02-12T22:37:52.828Z,100.00
2023-02-12T22:40:19.517Z,100.00
2023-02-12T22:42:46.331Z,100.00
2023-02-12T22:45:13.452Z,100.00
2023-02-12T22:47:40.053Z,100.00
2023-02-12T22:50:07.473Z,100.00
2023-02-12T22:52:34.119Z,100.00
2023-02-12T22:55:00.828Z,100.00
2023-02-12T22:57:27.454Z,100.00
2023-02-12T22:59:54.053Z,100.00
2023-02-12T23:02:20.693Z,100.00
2023-02-12T23:04:47.309Z,100.00
2023-02-12T23:07:13.896Z,100.00
2023-02-12T23:09:40.531Z,100.00
2023-02-12T23:12:08.123Z,100.00
2023-02-12T23:14:36.263Z,100.00
2023-02-12T23:17:05.594Z,100.00
2023-02-12T23:19:32.285Z,100.00
2023-02-12T23:21:58.947Z,100.00
2023-02-12T23:24:26.036Z,100.00
2023-02-12T23:26:53.340Z,100.00
2023-02-12T23:29:20.052Z,100.00
2023-02-12T23:31:46.765Z,100.00
2023-02-12T23:34:13.700Z,100.00
2023-02-12T23:36:40.382Z,100.00
2023-02-12T23:39:07.144Z,100.00
2023-02-12T23:41:33.842Z,100.00
2023-02-12T23:44:00.497Z,100.00
2023-02-12T23:46:27.114Z,100.00
2023-02-12T23:48:53.763Z,100.00
2023-02-12T23:51:20.388Z,100.00
2023-02-12T23:53:47.030Z,100.00
2023-02-12T23:56:13.727Z,100.00
2023-02-12T23:58:40.358Z,100.00
